Scout — WCZ2046 — position and weather

sailwx.info

Track history (hours):
 
Tides and Currents Weather Stations Pressure Air Temp Water Temp Dewpoint Dewpoint Depression Visibility Wind Speed Wind Dir Waves Ship Positions

Scout

Owner: Crowley Marine Services, SEATTLE, WA. More information available from US FCC via Universal Licensing System and Coast Guard Vessel Documentation Center.

Last reported at 2016-Feb-07 01:10 UTC. Time now 2016-Feb-07 03:59 UTC.
Position N 32°42' W 117°10'.

; draft 5.6 m.

Type: Tug. MMSI: 366764730.

Date/timePositionNaut miles runAvg speedWind from/ knotsBaromVisibWave heightAir tempDewpointWater temp
2016-Feb-07 01:10N 32°42' W 117°10'2 3.1
2016-Feb-07 00:33N 32°43' W 117°11'2 0.2
2016-Feb-06 14:33N 32°42' W 117°09'3 3.2
2016-Feb-06 13:34N 32°39' W 117°07'3 0.3
2016-Feb-06 01:05N 32°42' W 117°09'3 5.7
2016-Feb-06 00:33N 32°39' W 117°07'3 0.3
2016-Feb-05 13:18N 32°42' W 117°09'1 1.9
2016-Feb-05 12:33N 32°41' W 117°08'0 0.0
2016-Feb-05 11:31N 32°41' W 117°08'1 1.5
2016-Feb-05 10:33N 32°42' W 117°09'0 0.1
2016-Feb-05 09:24N 32°42' W 117°09'0 0.1
2016-Feb-05 08:29N 32°42' W 117°09'0 0.0
2016-Feb-05 07:33N 32°42' W 117°09'0 0.0
2016-Feb-05 06:33N 32°42' W 117°09'0 0.0
2016-Feb-05 05:28N 32°42' W 117°09'0 0.0
2016-Feb-05 04:33N 32°42' W 117°09'0 0.1
2016-Feb-05 03:33N 32°42' W 117°09'0 0.1
2016-Feb-05 02:33N 32°42' W 117°09'0 0.0
2016-Feb-05 01:33N 32°42' W 117°09'0 0.1
2016-Feb-04 22:25N 32°42' W 117°09'3 3.3
2016-Feb-04 21:33N 32°39' W 117°07'3 2.4
2016-Feb-04 20:18N 32°42' W 117°09'0 0.0
2016-Feb-04 19:18N 32°42' W 117°09'0 0.1
2016-Feb-04 18:24N 32°42' W 117°09'0 0.1
2016-Feb-04 17:23N 32°42' W 117°09'0 0.1
2016-Feb-04 13:31N 32°42' W 117°09'0 0.5
2016-Feb-04 12:33N 32°41' W 117°09'2 2.4
2016-Feb-04 11:33N 32°39' W 117°07'0 0.1
2016-Feb-04 10:33N 32°39' W 117°07'3 0.2
2016-Feb-03 22:19N 32°42' W 117°09'3 4.1
2016-Feb-03 21:30N 32°39' W 117°07'1 0.0
2016-Feb-03 02:32N 32°39' W 117°07'1 0.0
2016-Feb-02 01:26N 32°40' W 117°08'0 0.1
2016-Feb-02 00:32N 32°40' W 117°08'2 0.3
2016-Feb-01 17:34N 32°42' W 117°09'0 0.2
2016-Feb-01 16:33N 32°42' W 117°10'0 0.0
2016-Feb-01 15:12N 32°42' W 117°10'2 3.3
2016-Feb-01 14:33N 32°43' W 117°12'2 2.3
2016-Feb-01 13:28N 32°42' W 117°09'0 0.0
2016-Feb-01 12:33N 32°42' W 117°09'0 0.0
2016-Feb-01 11:32N 32°42' W 117°09'0 0.0
2016-Feb-01 10:33N 32°42' W 117°09'0 0.0
2016-Feb-01 09:33N 32°42' W 117°09'0 0.0
2016-Feb-01 08:33N 32°42' W 117°09'0 0.0
2016-Feb-01 07:33N 32°42' W 117°09'0 0.0
2016-Feb-01 06:33N 32°42' W 117°09'0 0.0
2016-Feb-01 05:33N 32°42' W 117°09'0 0.0
2016-Feb-01 04:33N 32°42' W 117°09'0 0.0
2016-Feb-01 03:33N 32°42' W 117°09'0 0.0
2016-Feb-01 02:33N 32°42' W 117°09'0 0.0
2016-Feb-01 01:33N 32°42' W 117°09'0 0.0
2016-Feb-01 00:33N 32°42' W 117°09'0 0.0
2016-Jan-31 23:33N 32°42' W 117°09'0 0.0
2016-Jan-31 22:33N 32°42' W 117°09'0 0.0
2016-Jan-31 21:33N 32°42' W 117°09'0 0.0
2016-Jan-31 20:33N 32°42' W 117°09'0 0.0
2016-Jan-31 19:33N 32°42' W 117°09'0 0.0
2016-Jan-31 18:33N 32°42' W 117°09'4 3.5
2016-Jan-31 17:33N 32°43' W 117°13'1 1.1
2016-Jan-31 16:30N 32°42' W 117°14'5 5.8
2016-Jan-31 15:34N 32°41' W 117°08'0 0.1
2016-Jan-31 14:33N 32°41' W 117°08'1 1.5
2016-Jan-31 13:33N 32°42' W 117°09'0 0.0
2016-Jan-31 12:33N 32°42' W 117°09'0 0.0
2016-Jan-31 11:33N 32°42' W 117°09'0 0.0
2016-Jan-31 10:33N 32°42' W 117°09'0 0.0
2016-Jan-31 09:33N 32°42' W 117°09'0 0.0
2016-Jan-31 08:33N 32°42' W 117°09'0 0.0
2016-Jan-31 07:33N 32°42' W 117°09'0 0.0
2016-Jan-31 06:33N 32°42' W 117°09'0 0.0
2016-Jan-31 05:33N 32°42' W 117°09'0 0.0
2016-Jan-31 04:33N 32°42' W 117°09'0 0.0
2016-Jan-31 03:33N 32°42' W 117°09'1 0.8
2016-Jan-31 02:33N 32°41' W 117°09'3 2.6
2016-Jan-31 01:33N 32°39' W 117°07'0 0.0
2016-Jan-31 00:33N 32°39' W 117°07'0 0.0
2016-Jan-30 23:33N 32°39' W 117°07'1 0.9
2016-Jan-30 22:33N 32°40' W 117°07'2 2.5
2016-Jan-30 21:33N 32°42' W 117°09'0 0.0
2016-Jan-30 20:33N 32°42' W 117°09'0 0.0
2016-Jan-30 19:33N 32°42' W 117°09'0 0.0
2016-Jan-30 18:33N 32°42' W 117°09'0 0.0
2016-Jan-30 17:33N 32°42' W 117°09'4 4.3
2016-Jan-30 16:33N 32°42' W 117°14'3 2.8
2016-Jan-30 15:33N 32°39' W 117°13'4 4.4
2016-Jan-30 14:33N 32°42' W 117°09'0 0.0
2016-Jan-30 13:33N 32°42' W 117°09'0 0.0
2016-Jan-30 12:33N 32°42' W 117°09'0 0.1
2016-Jan-30 11:33N 32°42' W 117°09'3 3.3
2016-Jan-30 10:34N 32°39' W 117°07'3 3.3
2016-Jan-30 09:33N 32°42' W 117°09'0 0.0
2016-Jan-30 08:33N 32°42' W 117°09'0 0.0
2016-Jan-30 07:33N 32°42' W 117°09'0 0.0
2016-Jan-30 06:33N 32°42' W 117°09'0 0.0
2016-Jan-30 05:33N 32°42' W 117°09'0 0.0
2016-Jan-30 04:33N 32°42' W 117°09'0 0.0
2016-Jan-30 03:33N 32°42' W 117°09'0 0.0
2016-Jan-30 02:33N 32°42' W 117°09'0 0.0
2016-Jan-30 01:33N 32°42' W 117°09'0 0.0
2016-Jan-30 00:33N 32°42' W 117°09'0 0.0
2016-Jan-29 23:33N 32°42' W 117°09'0 0.0
2016-Jan-29 22:33N 32°42' W 117°09'0 0.0
2016-Jan-29 21:33N 32°42' W 117°09'0 0.0
2016-Jan-29 20:33N 32°42' W 117°09'0 0.0
2016-Jan-29 19:33N 32°42' W 117°09'0 0.0
2016-Jan-29 18:33N 32°42' W 117°09'0 0.0
2016-Jan-29 17:33N 32°42' W 117°09'0 0.0
2016-Jan-29 16:33N 32°42' W 117°09'0 0.0
2016-Jan-29 15:33N 32°42' W 117°09'0 0.0
2016-Jan-29 14:33N 32°42' W 117°09'0 0.0
2016-Jan-29 13:33N 32°42' W 117°09'0 0.0
2016-Jan-29 12:33N 32°42' W 117°09'0 0.0
2016-Jan-29 11:33N 32°42' W 117°09'0 0.0
2016-Jan-29 10:33N 32°42' W 117°09'0 0.0
2016-Jan-29 09:33N 32°42' W 117°09'0 0.0
2016-Jan-29 08:33N 32°42' W 117°09'0 0.0
2016-Jan-29 07:33N 32°42' W 117°09'0 0.0
2016-Jan-29 06:33N 32°42' W 117°09'0 0.0
2016-Jan-29 05:33N 32°42' W 117°09'0 0.0
2016-Jan-29 04:33N 32°42' W 117°09'0 0.0
2016-Jan-29 03:33N 32°42' W 117°09'0 0.0
2016-Jan-29 02:33N 32°42' W 117°09'0 0.0
2016-Jan-29 01:33N 32°42' W 117°09'0 0.0
2016-Jan-29 00:33N 32°42' W 117°09'3 2.7
2016-Jan-28 23:33N 32°39' W 117°07'3 2.7
2016-Jan-28 22:33N 32°42' W 117°09'0 0.0
2016-Jan-28 21:33N 32°42' W 117°09'0 0.4
2016-Jan-28 20:33N 32°42' W 117°10'0 0.4
2016-Jan-28 19:33N 32°42' W 117°09'0 0.0
2016-Jan-28 18:33N 32°42' W 117°09'0 0.0
2016-Jan-28 17:33N 32°42' W 117°09'0 0.0
2016-Jan-28 16:33N 32°42' W 117°09'0 0.0
2016-Jan-28 15:33N 32°42' W 117°09'3 3.1
2016-Jan-28 14:28N 32°39' W 117°07'3 3.6
2016-Jan-28 13:33N 32°42' W 117°09'0 0.0
2016-Jan-28 12:33N 32°42' W 117°09'0 0.0
2016-Jan-28 11:33N 32°42' W 117°09'0 0.0
2016-Jan-28 10:33N 32°42' W 117°09'0 0.0
2016-Jan-28 09:33N 32°42' W 117°09'0 0.0
2016-Jan-28 08:33N 32°42' W 117°09'0 0.5
2016-Jan-28 07:33N 32°41' W 117°09'2 1.7
2016-Jan-28 06:33N 32°40' W 117°08'1 0.8
2016-Jan-28 05:33N 32°41' W 117°08'1 1.5
2016-Jan-28 04:33N 32°42' W 117°09'0 0.0
2016-Jan-28 03:33N 32°42' W 117°09'0 0.0
2016-Jan-28 02:33N 32°42' W 117°09'0 0.0
2016-Jan-28 01:33N 32°42' W 117°09'  
Track history (hours):
 
Tides and Currents Weather Stations Pressure Air Temp Water Temp Dewpoint Dewpoint Depression Visibility Wind Speed Wind Dir Waves Ship Positions

Scout

Owner: Crowley Marine Services, SEATTLE, WA. More information available from US FCC via Universal Licensing System and Coast Guard Vessel Documentation Center.

Last reported at 2016-Feb-07 01:10 UTC. Time now 2016-Feb-07 03:59 UTC.
Position N 32°42' W 117°10'.

; draft 5.6 m.

Type: Tug. MMSI: 366764730.

Date/timePositionNaut miles runAvg speedWind from/ knotsBaromVisibWave heightAir tempDewpointWater temp
2016-Feb-07 01:10N 32°42' W 117°10'2 3.1
2016-Feb-07 00:33N 32°43' W 117°11'2 0.2
2016-Feb-06 14:33N 32°42' W 117°09'3 3.2
2016-Feb-06 13:34N 32°39' W 117°07'3 0.3
2016-Feb-06 01:05N 32°42' W 117°09'3 5.7
2016-Feb-06 00:33N 32°39' W 117°07'3 0.3
2016-Feb-05 13:18N 32°42' W 117°09'1 1.9
2016-Feb-05 12:33N 32°41' W 117°08'0 0.0
2016-Feb-05 11:31N 32°41' W 117°08'1 1.5
2016-Feb-05 10:33N 32°42' W 117°09'0 0.1
2016-Feb-05 09:24N 32°42' W 117°09'0 0.1
2016-Feb-05 08:29N 32°42' W 117°09'0 0.0
2016-Feb-05 07:33N 32°42' W 117°09'0 0.0
2016-Feb-05 06:33N 32°42' W 117°09'0 0.0
2016-Feb-05 05:28N 32°42' W 117°09'0 0.0
2016-Feb-05 04:33N 32°42' W 117°09'0 0.1
2016-Feb-05 03:33N 32°42' W 117°09'0 0.1
2016-Feb-05 02:33N 32°42' W 117°09'0 0.0
2016-Feb-05 01:33N 32°42' W 117°09'0 0.1
2016-Feb-04 22:25N 32°42' W 117°09'3 3.3
2016-Feb-04 21:33N 32°39' W 117°07'3 2.4
2016-Feb-04 20:18N 32°42' W 117°09'0 0.0
2016-Feb-04 19:18N 32°42' W 117°09'0 0.1
2016-Feb-04 18:24N 32°42' W 117°09'0 0.1
2016-Feb-04 17:23N 32°42' W 117°09'0 0.1
2016-Feb-04 13:31N 32°42' W 117°09'0 0.5
2016-Feb-04 12:33N 32°41' W 117°09'2 2.4
2016-Feb-04 11:33N 32°39' W 117°07'0 0.1
2016-Feb-04 10:33N 32°39' W 117°07'3 0.2
2016-Feb-03 22:19N 32°42' W 117°09'3 4.1
2016-Feb-03 21:30N 32°39' W 117°07'1 0.0
2016-Feb-03 02:32N 32°39' W 117°07'1 0.0
2016-Feb-02 01:26N 32°40' W 117°08'0 0.1
2016-Feb-02 00:32N 32°40' W 117°08'2 0.3
2016-Feb-01 17:34N 32°42' W 117°09'0 0.2
2016-Feb-01 16:33N 32°42' W 117°10'0 0.0
2016-Feb-01 15:12N 32°42' W 117°10'2 3.3
2016-Feb-01 14:33N 32°43' W 117°12'2 2.3
2016-Feb-01 13:28N 32°42' W 117°09'0 0.0
2016-Feb-01 12:33N 32°42' W 117°09'0 0.0
2016-Feb-01 11:32N 32°42' W 117°09'0 0.0
2016-Feb-01 10:33N 32°42' W 117°09'0 0.0
2016-Feb-01 09:33N 32°42' W 117°09'0 0.0
2016-Feb-01 08:33N 32°42' W 117°09'0 0.0
2016-Feb-01 07:33N 32°42' W 117°09'0 0.0
2016-Feb-01 06:33N 32°42' W 117°09'0 0.0
2016-Feb-01 05:33N 32°42' W 117°09'0 0.0
2016-Feb-01 04:33N 32°42' W 117°09'0 0.0
2016-Feb-01 03:33N 32°42' W 117°09'0 0.0
2016-Feb-01 02:33N 32°42' W 117°09'0 0.0
2016-Feb-01 01:33N 32°42' W 117°09'0 0.0
2016-Feb-01 00:33N 32°42' W 117°09'0 0.0
2016-Jan-31 23:33N 32°42' W 117°09'0 0.0
2016-Jan-31 22:33N 32°42' W 117°09'0 0.0
2016-Jan-31 21:33N 32°42' W 117°09'0 0.0
2016-Jan-31 20:33N 32°42' W 117°09'0 0.0
2016-Jan-31 19:33N 32°42' W 117°09'0 0.0
2016-Jan-31 18:33N 32°42' W 117°09'4 3.5
2016-Jan-31 17:33N 32°43' W 117°13'1 1.1
2016-Jan-31 16:30N 32°42' W 117°14'5 5.8
2016-Jan-31 15:34N 32°41' W 117°08'0 0.1
2016-Jan-31 14:33N 32°41' W 117°08'1 1.5
2016-Jan-31 13:33N 32°42' W 117°09'0 0.0
2016-Jan-31 12:33N 32°42' W 117°09'0 0.0
2016-Jan-31 11:33N 32°42' W 117°09'0 0.0
2016-Jan-31 10:33N 32°42' W 117°09'0 0.0
2016-Jan-31 09:33N 32°42' W 117°09'0 0.0
2016-Jan-31 08:33N 32°42' W 117°09'0 0.0
2016-Jan-31 07:33N 32°42' W 117°09'0 0.0
2016-Jan-31 06:33N 32°42' W 117°09'0 0.0
2016-Jan-31 05:33N 32°42' W 117°09'0 0.0
2016-Jan-31 04:33N 32°42' W 117°09'0 0.0
2016-Jan-31 03:33N 32°42' W 117°09'1 0.8
2016-Jan-31 02:33N 32°41' W 117°09'3 2.6
2016-Jan-31 01:33N 32°39' W 117°07'0 0.0
2016-Jan-31 00:33N 32°39' W 117°07'0 0.0
2016-Jan-30 23:33N 32°39' W 117°07'1 0.9
2016-Jan-30 22:33N 32°40' W 117°07'2 2.5
2016-Jan-30 21:33N 32°42' W 117°09'0 0.0
2016-Jan-30 20:33N 32°42' W 117°09'0 0.0
2016-Jan-30 19:33N 32°42' W 117°09'0 0.0
2016-Jan-30 18:33N 32°42' W 117°09'0 0.0
2016-Jan-30 17:33N 32°42' W 117°09'4 4.3
2016-Jan-30 16:33N 32°42' W 117°14'3 2.8
2016-Jan-30 15:33N 32°39' W 117°13'4 4.4
2016-Jan-30 14:33N 32°42' W 117°09'0 0.0
2016-Jan-30 13:33N 32°42' W 117°09'0 0.0
2016-Jan-30 12:33N 32°42' W 117°09'0 0.1
2016-Jan-30 11:33N 32°42' W 117°09'3 3.3
2016-Jan-30 10:34N 32°39' W 117°07'3 3.3
2016-Jan-30 09:33N 32°42' W 117°09'0 0.0
2016-Jan-30 08:33N 32°42' W 117°09'0 0.0
2016-Jan-30 07:33N 32°42' W 117°09'0 0.0
2016-Jan-30 06:33N 32°42' W 117°09'0 0.0
2016-Jan-30 05:33N 32°42' W 117°09'0 0.0
2016-Jan-30 04:33N 32°42' W 117°09'0 0.0
2016-Jan-30 03:33N 32°42' W 117°09'0 0.0
2016-Jan-30 02:33N 32°42' W 117°09'0 0.0
2016-Jan-30 01:33N 32°42' W 117°09'0 0.0
2016-Jan-30 00:33N 32°42' W 117°09'0 0.0
2016-Jan-29 23:33N 32°42' W 117°09'0 0.0
2016-Jan-29 22:33N 32°42' W 117°09'0 0.0
2016-Jan-29 21:33N 32°42' W 117°09'0 0.0
2016-Jan-29 20:33N 32°42' W 117°09'0 0.0
2016-Jan-29 19:33N 32°42' W 117°09'0 0.0
2016-Jan-29 18:33N 32°42' W 117°09'0 0.0
2016-Jan-29 17:33N 32°42' W 117°09'0 0.0
2016-Jan-29 16:33N 32°42' W 117°09'0 0.0
2016-Jan-29 15:33N 32°42' W 117°09'0 0.0
2016-Jan-29 14:33N 32°42' W 117°09'0 0.0
2016-Jan-29 13:33N 32°42' W 117°09'0 0.0
2016-Jan-29 12:33N 32°42' W 117°09'0 0.0
2016-Jan-29 11:33N 32°42' W 117°09'0 0.0
2016-Jan-29 10:33N 32°42' W 117°09'0 0.0
2016-Jan-29 09:33N 32°42' W 117°09'0 0.0
2016-Jan-29 08:33N 32°42' W 117°09'0 0.0
2016-Jan-29 07:33N 32°42' W 117°09'0 0.0
2016-Jan-29 06:33N 32°42' W 117°09'0 0.0
2016-Jan-29 05:33N 32°42' W 117°09'0 0.0
2016-Jan-29 04:33N 32°42' W 117°09'0 0.0
2016-Jan-29 03:33N 32°42' W 117°09'0 0.0
2016-Jan-29 02:33N 32°42' W 117°09'0 0.0
2016-Jan-29 01:33N 32°42' W 117°09'0 0.0
2016-Jan-29 00:33N 32°42' W 117°09'3 2.7
2016-Jan-28 23:33N 32°39' W 117°07'3 2.7
2016-Jan-28 22:33N 32°42' W 117°09'0 0.0
2016-Jan-28 21:33N 32°42' W 117°09'0 0.4
2016-Jan-28 20:33N 32°42' W 117°10'0 0.4
2016-Jan-28 19:33N 32°42' W 117°09'0 0.0
2016-Jan-28 18:33N 32°42' W 117°09'0 0.0
2016-Jan-28 17:33N 32°42' W 117°09'0 0.0
2016-Jan-28 16:33N 32°42' W 117°09'0 0.0
2016-Jan-28 15:33N 32°42' W 117°09'3 3.1
2016-Jan-28 14:28N 32°39' W 117°07'3 3.6
2016-Jan-28 13:33N 32°42' W 117°09'0 0.0
2016-Jan-28 12:33N 32°42' W 117°09'0 0.0
2016-Jan-28 11:33N 32°42' W 117°09'0 0.0
2016-Jan-28 10:33N 32°42' W 117°09'0 0.0
2016-Jan-28 09:33N 32°42' W 117°09'0 0.0
2016-Jan-28 08:33N 32°42' W 117°09'0 0.5
2016-Jan-28 07:33N 32°41' W 117°09'2 1.7
2016-Jan-28 06:33N 32°40' W 117°08'1 0.8
2016-Jan-28 05:33N 32°41' W 117°08'1 1.5
2016-Jan-28 04:33N 32°42' W 117°09'0 0.0
2016-Jan-28 03:33N 32°42' W 117°09'0 0.0
2016-Jan-28 02:33N 32°42' W 117°09'0 0.0
2016-Jan-28 01:33N 32°42' W 117°09'  

Dump ship's entire track history